createdAt,value
2022-12-08T00:01:39.533Z,100992.13
2022-12-08T00:04:07.145Z,100994.84
2022-12-08T00:07:12.083Z,100988.50
2022-12-08T00:09:42.090Z,100992.13
2022-12-08T00:12:11.617Z,100976.69
2022-12-08T00:14:40.547Z,100979.19
2022-12-08T00:17:10.023Z,100980.03
2022-12-08T00:19:37.459Z,100976.50
2022-12-08T00:22:05.144Z,100973.78
2022-12-08T00:24:34.833Z,100968.50
2022-12-08T00:27:03.193Z,100968.19
2022-12-08T00:29:30.194Z,100968.75
2022-12-08T00:31:57.283Z,100969.00
2022-12-08T00:34:24.240Z,100970.34
2022-12-08T00:36:51.201Z,100963.44
2022-12-08T00:39:18.382Z,100958.47
2022-12-08T00:42:03.438Z,100950.22
2022-12-08T00:44:31.671Z,100959.09
2022-12-08T00:46:58.695Z,100955.25
2022-12-08T00:49:25.535Z,100963.31
2022-12-08T00:51:52.789Z,100954.03
2022-12-08T00:54:20.029Z,100949.63
2022-12-08T00:56:46.910Z,100947.44
2022-12-08T00:59:14.861Z,100942.22
2022-12-08T01:01:44.376Z,100941.38
2022-12-08T01:04:15.828Z,100947.19
2022-12-08T01:06:43.888Z,100935.56
2022-12-08T01:09:13.219Z,100936.72
2022-12-08T01:11:40.068Z,100942.53
2022-12-08T01:14:06.898Z,100935.41
2022-12-08T01:16:36.283Z,100934.56
2022-12-08T01:19:04.875Z,100933.50
2022-12-08T01:21:31.727Z,100925.25
2022-12-08T01:24:00.551Z,100926.13
2022-12-08T01:26:27.565Z,100919.81
2022-12-08T01:28:54.702Z,100915.38
2022-12-08T01:31:22.684Z,100915.94
2022-12-08T01:33:50.165Z,100915.38
2022-12-08T01:36:22.432Z,100915.09
2022-12-08T01:38:49.379Z,100919.81
2022-12-08T01:41:18.151Z,100918.94
2022-12-08T01:43:56.780Z,100913.16
2022-12-08T01:46:24.185Z,100925.59
2022-12-08T01:48:54.559Z,100923.13
2022-12-08T01:51:22.994Z,100924.44
2022-12-08T01:53:50.211Z,100921.09
2022-12-08T01:56:24.272Z,100924.88
2022-12-08T01:58:53.492Z,100926.00
2022-12-08T02:01:20.469Z,100920.41
2022-12-08T02:03:52.056Z,100925.31
2022-12-08T02:06:19.899Z,100925.53
2022-12-08T02:08:49.840Z,100917.69
2022-12-08T02:11:16.773Z,100920.69
2022-12-08T02:13:46.211Z,100918.66
2022-12-08T02:16:25.673Z,100903.97
2022-12-08T02:19:29.832Z,100907.56
2022-12-08T02:21:57.071Z,100897.81
2022-12-08T02:24:33.279Z,100903.06
2022-12-08T02:27:22.885Z,100908.28
2022-12-08T02:30:04.878Z,100903.56
2022-12-08T02:33:10.113Z,100904.66
2022-12-08T02:35:43.177Z,100892.25
2022-12-08T02:38:21.671Z,100891.41
2022-12-08T02:40:58.432Z,100878.72
2022-12-08T02:43:29.905Z,100882.31
2022-12-08T02:46:02.138Z,100879.00
2022-12-08T02:48:29.719Z,100873.25
2022-12-08T02:50:57.911Z,100874.94
2022-12-08T02:53:24.897Z,100877.13
2022-12-08T02:56:01.682Z,100876.28
2022-12-08T02:58:50.507Z,100874.94
2022-12-08T03:01:44.625Z,100868.00
2022-12-08T03:04:26.356Z,100857.56
2022-12-08T03:06:59.288Z,100856.72
2022-12-08T03:09:35.015Z,100850.44
2022-12-08T03:12:13.307Z,100855.13
2022-12-08T03:14:45.609Z,100853.97
2022-12-08T03:17:14.980Z,100855.97
2022-12-08T03:19:43.354Z,100854.38
2022-12-08T03:22:13.530Z,100851.06
2022-12-08T03:24:43.888Z,100857.78
2022-12-08T03:27:14.863Z,100855.38
2022-12-08T03:29:41.740Z,100853.41
2022-12-08T03:32:14.070Z,100851.81
2022-12-08T03:34:44.213Z,100838.81
2022-12-08T03:37:12.696Z,100836.00
2022-12-08T03:39:39.841Z,100828.19
2022-12-08T03:42:06.622Z,100827.94
2022-12-08T03:44:33.412Z,100826.56
2022-12-08T03:47:00.270Z,100812.41
2022-12-08T03:49:27.235Z,100818.16
2022-12-08T03:51:54.140Z,100819.28
2022-12-08T03:54:23.434Z,100808.56
2022-12-08T03:56:50.281Z,100817.97
2022-12-08T03:59:17.141Z,100815.78
2022-12-08T04:01:44.038Z,100816.38
2022-12-08T04:04:11.189Z,100818.09
2022-12-08T04:06:37.999Z,100809.81
2022-12-08T04:09:04.810Z,100816.97
2022-12-08T04:11:33.004Z,100817.81
2022-12-08T04:13:59.828Z,100805.66
2022-12-08T04:16:27.999Z,100803.75
2022-12-08T04:18:55.021Z,100798.78
2022-12-08T04:21:22.339Z,100803.13
2022-12-08T04:23:49.527Z,100804.75
2022-12-08T04:26:16.721Z,100797.31
2022-12-08T04:28:45.145Z,100793.19
2022-12-08T04:31:12.187Z,100792.72
2022-12-08T04:33:39.266Z,100792.72
2022-12-08T04:36:07.381Z,100794.31
2022-12-08T04:38:34.631Z,100795.19
2022-12-08T04:41:01.906Z,100787.97
2022-12-08T04:43:28.784Z,100782.44
2022-12-08T04:45:57.037Z,100781.63
2022-12-08T04:48:23.943Z,100782.16
2022-12-08T04:50:51.622Z,100773.28
2022-12-08T04:53:19.902Z,100766.09
2022-12-08T04:55:48.783Z,100772.47
2022-12-08T04:58:17.709Z,100774.34
2022-12-08T05:00:45.597Z,100776.81
2022-12-08T05:03:14.759Z,100765.41
2022-12-08T05:05:42.216Z,100762.66
2022-12-08T05:08:10.107Z,100760.44
2022-12-08T05:10:37.402Z,100762.06
2022-12-08T05:13:04.277Z,100761.53
2022-12-08T05:15:31.129Z,100756.81
2022-12-08T05:17:57.937Z,100757.69
2022-12-08T05:20:26.162Z,100751.84
2022-12-08T05:22:53.175Z,100747.69
2022-12-08T05:25:20.188Z,100755.41
2022-12-08T05:27:47.009Z,100757.59
2022-12-08T05:30:14.198Z,100753.66
2022-12-08T05:32:41.029Z,100756.19
2022-12-08T05:35:08.797Z,100745.44
2022-12-08T05:37:37.251Z,100749.56
2022-12-08T05:40:04.723Z,100748.97
2022-12-08T05:42:31.776Z,100741.56
2022-12-08T05:44:58.645Z,100745.91
2022-12-08T05:47:25.421Z,100736.81
2022-12-08T05:49:52.287Z,100735.69
2022-12-08T05:52:19.150Z,100729.34
2022-12-08T05:55:22.364Z,100731.81
2022-12-08T05:57:39.486Z,100744.63
2022-12-08T06:00:07.896Z,100749.31
2022-12-08T06:02:35.824Z,100757.09
2022-12-08T06:05:02.927Z,100756.50
2022-12-08T06:07:29.774Z,100751.75
2022-12-08T06:09:57.917Z,100750.06
2022-12-08T06:12:24.817Z,100756.13
2022-12-08T06:17:33.340Z,100748.22
2022-12-08T06:20:00.229Z,100741.50
2022-12-08T06:22:27.020Z,100741.50
2022-12-08T06:24:53.876Z,100734.84
2022-12-08T06:27:22.056Z,100746.53
2022-12-08T06:29:48.893Z,100737.94
2022-12-08T06:32:15.813Z,100731.00
2022-12-08T06:34:42.726Z,100734.63
2022-12-08T06:37:09.641Z,100728.56
2022-12-08T06:39:36.723Z,100728.94
2022-12-08T06:42:22.379Z,100735.81
2022-12-08T06:44:50.835Z,100733.34
2022-12-08T06:47:20.038Z,100730.13
2022-12-08T06:49:50.132Z,100734.75
2022-12-08T06:52:16.961Z,100729.75
2022-12-08T06:54:43.895Z,100734.00
2022-12-08T06:57:10.991Z,100722.44
2022-12-08T06:59:39.187Z,100729.13
2022-12-08T07:02:07.383Z,100717.84
2022-12-08T07:04:34.241Z,100709.69
2022-12-08T07:07:01.162Z,100711.06
2022-12-08T07:09:28.472Z,100713.84
2022-12-08T07:11:55.305Z,100707.81
2022-12-08T07:14:24.913Z,100708.31
2022-12-08T07:16:52.321Z,100715.25
2022-12-08T07:19:20.719Z,100721.63
2022-12-08T07:21:47.621Z,100724.38
2022-12-08T07:24:14.574Z,100718.94
2022-12-08T07:26:41.713Z,100719.75
2022-12-08T07:29:10.345Z,100713.97
2022-12-08T07:31:37.574Z,100709.84
2022-12-08T07:34:04.778Z,100713.44
2022-12-08T07:36:33.043Z,100718.13
2022-12-08T07:39:00.128Z,100711.78
2022-12-08T07:41:27.178Z,100701.56
2022-12-08T07:43:54.318Z,100712.31
2022-12-08T07:46:23.031Z,100711.97
2022-12-08T07:48:50.319Z,100706.97
2022-12-08T07:51:17.549Z,100701.75
2022-12-08T07:53:53.414Z,100701.97
2022-12-08T07:56:22.036Z,100698.63
2022-12-08T07:58:48.843Z,100689.78
2022-12-08T08:01:20.648Z,100698.59
2022-12-08T08:03:47.721Z,100696.63
2022-12-08T08:06:14.777Z,100697.69
2022-12-08T08:08:41.579Z,100704.56
2022-12-08T08:11:18.944Z,100705.88
2022-12-08T08:13:47.925Z,100688.75
2022-12-08T08:16:14.982Z,100700.28
2022-12-08T08:18:43.519Z,100698.03
2022-12-08T08:21:43.165Z,100691.31
2022-12-08T08:23:57.142Z,100702.69
2022-12-08T08:26:25.320Z,100691.31
2022-12-08T08:28:52.421Z,100697.31
2022-12-08T08:31:24.789Z,100704.78
2022-12-08T08:33:51.752Z,100697.84
2022-12-08T08:36:18.722Z,100693.44
2022-12-08T08:38:45.579Z,100693.16
2022-12-08T08:41:12.395Z,100690.97
2022-12-08T08:43:40.718Z,100680.16
2022-12-08T08:46:09.041Z,100686.22
2022-12-08T08:48:36.364Z,100683.13
2022-12-08T08:51:07.996Z,100683.44
2022-12-08T08:53:35.261Z,100682.84
2022-12-08T08:56:02.983Z,100684.19
2022-12-08T08:58:29.979Z,100682.75
2022-12-08T09:00:58.249Z,100675.88
2022-12-08T09:03:25.041Z,100668.06
2022-12-08T09:05:51.956Z,100671.06
2022-12-08T09:08:19.050Z,100674.34
2022-12-08T09:10:46.004Z,100673.16
2022-12-08T09:13:13.009Z,100675.25
2022-12-08T09:15:39.970Z,100676.06
2022-12-08T09:18:08.255Z,100682.84
2022-12-08T09:20:35.665Z,100685.75
2022-12-08T09:23:02.651Z,100686.00
2022-12-08T09:25:29.546Z,100682.91
2022-12-08T09:27:56.568Z,100684.66
2022-12-08T09:30:23.514Z,100686.72
2022-12-08T09:32:50.415Z,100681.72
2022-12-08T09:35:18.620Z,100689.88
2022-12-08T09:37:45.436Z,100682.63
2022-12-08T09:40:17.799Z,100677.09
2022-12-08T09:42:50.796Z,100681.50
2022-12-08T09:45:19.151Z,100680.97
2022-12-08T09:47:54.328Z,100671.66
2022-12-08T09:50:31.356Z,100670.31
2022-12-08T09:53:03.978Z,100667.91
2022-12-08T09:55:42.478Z,100672.91
2022-12-08T09:58:20.741Z,100668.56
2022-12-08T10:00:47.836Z,100663.53
2022-12-08T10:03:16.829Z,100663.91
2022-12-08T10:05:52.063Z,100658.19
2022-12-08T10:08:21.304Z,100654.09
2022-12-08T10:10:56.947Z,100655.59
2022-12-08T10:13:32.129Z,100650.19
2022-12-08T10:16:15.106Z,100651.13
2022-12-08T10:18:46.136Z,100652.59
2022-12-08T10:21:18.831Z,100651.16
2022-12-08T10:23:50.103Z,100646.06
2022-12-08T10:26:18.875Z,100648.63
2022-12-08T10:28:46.032Z,100647.00
2022-12-08T10:31:17.938Z,100643.66
2022-12-08T10:33:47.164Z,100639.47
2022-12-08T10:36:15.443Z,100638.53
2022-12-08T10:38:42.244Z,100643.34
2022-12-08T10:41:14.204Z,100641.91
2022-12-08T10:43:46.342Z,100642.31
2022-12-08T10:46:16.157Z,100633.81
2022-12-08T10:48:51.818Z,100634.22
2022-12-08T10:51:37.691Z,100635.88
2022-12-08T10:54:06.200Z,100636.38
2022-12-08T10:56:36.161Z,100634.88
2022-12-08T11:03:24.483Z,100628.28
2022-12-08T11:05:55.683Z,100622.16
2022-12-08T11:08:24.287Z,100628.31
2022-12-08T11:10:51.327Z,100616.75
2022-12-08T11:13:22.155Z,100617.59
2022-12-08T11:15:50.634Z,100611.75
2022-12-08T11:18:29.536Z,100615.09
2022-12-08T11:21:00.368Z,100614.22
2022-12-08T11:23:30.272Z,100609.28
2022-12-08T11:26:05.274Z,100599.41
2022-12-08T11:28:32.338Z,100597.31
2022-12-08T11:31:05.208Z,100590.06
2022-12-08T11:33:33.383Z,100593.91
2022-12-08T11:36:04.887Z,100595.22
2022-12-08T11:38:35.381Z,100592.22
2022-12-08T11:41:09.467Z,100586.63
2022-12-08T11:43:46.100Z,100592.31
2022-12-08T11:46:17.858Z,100591.25
2022-12-08T11:48:49.912Z,100591.53
2022-12-08T11:51:21.700Z,100582.47
2022-12-08T11:53:58.593Z,100575.94
2022-12-08T11:56:31.320Z,100574.13
2022-12-08T11:59:03.158Z,100581.59
2022-12-08T12:01:30.204Z,100574.06
2022-12-08T12:04:09.676Z,100570.00
2022-12-08T12:07:01.606Z,100579.59
2022-12-08T12:09:41.815Z,100570.53
2022-12-08T12:12:18.191Z,100565.59
2022-12-08T12:15:19.923Z,100566.44
2022-12-08T12:17:51.475Z,100570.25
2022-12-08T12:20:24.230Z,100562.25
2022-12-08T12:22:56.395Z,100563.78
2022-12-08T12:25:26.697Z,100554.06
2022-12-08T12:27:59.397Z,100556.25
2022-12-08T12:30:27.983Z,100553.53
2022-12-08T12:32:58.848Z,100562.06
2022-12-08T12:35:33.017Z,100559.88
2022-12-08T12:38:03.973Z,100562.19
2022-12-08T12:40:41.970Z,100563.44
2022-12-08T12:43:23.938Z,100557.16
2022-12-08T12:45:50.904Z,100558.34
2022-12-08T12:48:24.684Z,100557.03
2022-12-08T12:50:52.573Z,100560.53
2022-12-08T12:53:49.181Z,100561.25
2022-12-08T12:56:49.788Z,100571.13
2022-12-08T12:59:41.135Z,100577.38
2022-12-08T13:02:18.466Z,100588.72
2022-12-08T13:04:55.537Z,100585.75
2022-12-08T13:07:24.619Z,100582.16
2022-12-08T13:09:57.918Z,100576.91
2022-12-08T13:12:28.189Z,100574.44
2022-12-08T13:15:03.367Z,100576.06
2022-12-08T13:17:32.017Z,100576.59
2022-12-08T13:20:00.472Z,100576.81
2022-12-08T13:23:12.094Z,100568.91
2022-12-08T13:25:54.797Z,100549.31
2022-12-08T13:28:25.913Z,100549.13
2022-12-08T13:30:54.105Z,100549.31
2022-12-08T13:33:30.775Z,100550.66
2022-12-08T13:36:05.635Z,100541.97
2022-12-08T13:38:36.148Z,100537.97
2022-12-08T13:41:08.125Z,100537.66
2022-12-08T13:43:52.448Z,100539.91
2022-12-08T13:53:49.338Z,100522.41
2022-12-08T13:57:55.387Z,100515.44
2022-12-08T14:00:24.238Z,100507.56
2022-12-08T14:02:55.892Z,100516.75
2022-12-08T14:05:47.524Z,100515.53
2022-12-08T14:08:51.040Z,100513.75
2022-12-08T14:11:33.476Z,100517.44
2022-12-08T14:14:03.437Z,100511.59
2022-12-08T14:16:39.162Z,100510.41
2022-12-08T14:19:14.898Z,100498.75
2022-12-08T14:21:43.835Z,100518.22
2022-12-08T14:24:11.922Z,100505.94
2022-12-08T14:26:38.786Z,100516.16
2022-12-08T14:29:07.867Z,100513.38
2022-12-08T14:31:36.180Z,100508.78
2022-12-08T14:34:03.192Z,100517.97
2022-12-08T14:36:32.048Z,100516.94
2022-12-08T14:38:59.115Z,100511.09
2022-12-08T14:41:28.119Z,100506.25
2022-12-08T14:44:00.211Z,100505.97
2022-12-08T14:46:28.206Z,100507.97
2022-12-08T14:48:58.158Z,100509.03
2022-12-08T14:51:30.558Z,100507.75
2022-12-08T14:54:00.242Z,100521.69
2022-12-08T14:56:32.979Z,100513.47
2022-12-08T14:59:06.368Z,100513.66
2022-12-08T15:01:34.768Z,100512.50
2022-12-08T15:04:09.563Z,100513.59
2022-12-08T15:06:36.903Z,100521.00
2022-12-08T15:09:16.721Z,100519.84
2022-12-08T15:11:43.757Z,100527.44
2022-12-08T15:14:29.056Z,100523.34
2022-12-08T15:16:55.938Z,100517.81
2022-12-08T15:19:28.511Z,100510.88
2022-12-08T15:21:57.634Z,100515.91
2022-12-08T15:24:26.386Z,100513.13
2022-12-08T15:26:53.863Z,100519.00
2022-12-08T15:29:23.365Z,100512.00
2022-12-08T15:31:52.431Z,100518.66
2022-12-08T15:34:19.536Z,100510.75
2022-12-08T15:36:49.179Z,100514.91
2022-12-08T15:39:28.438Z,100510.38
2022-12-08T15:41:55.447Z,100509.63
2022-12-08T15:44:22.930Z,100507.50
2022-12-08T15:46:50.196Z,100506.97
2022-12-08T15:49:19.107Z,100503.25
2022-12-08T15:51:47.804Z,100499.72
2022-12-08T15:54:15.138Z,100505.59
2022-12-08T15:57:02.959Z,100504.84
2022-12-08T15:59:32.151Z,100498.78
2022-12-08T16:01:59.426Z,100507.75
2022-12-08T16:07:22.366Z,100498.53
2022-12-08T16:09:49.563Z,100506.16
2022-12-08T16:18:15.955Z,100492.97
2022-12-08T16:21:07.577Z,100486.28
2022-12-08T16:23:42.976Z,100485.63
2022-12-08T16:26:28.625Z,100481.06
2022-12-08T16:29:00.142Z,100483.66
2022-12-08T16:31:27.061Z,100484.88
2022-12-08T16:33:53.905Z,100481.06
2022-12-08T16:36:20.729Z,100485.84
2022-12-08T16:38:48.883Z,100480.69
2022-12-08T16:41:35.659Z,100476.06
2022-12-08T16:44:03.160Z,100487.38
2022-12-08T16:46:30.199Z,100482.19
2022-12-08T16:48:59.707Z,100484.97
2022-12-08T16:51:27.524Z,100483.91
2022-12-08T16:53:57.112Z,100485.06
2022-12-08T16:56:30.611Z,100485.63
2022-12-08T16:58:59.539Z,100480.91
2022-12-08T17:01:26.500Z,100484.00
2022-12-08T17:04:22.522Z,100484.03
2022-12-08T17:06:40.474Z,100495.56
2022-12-08T17:09:08.837Z,100484.09
2022-12-08T17:11:42.387Z,100486.88
2022-12-08T17:14:10.257Z,100483.41
2022-12-08T17:16:37.293Z,100484.25
2022-12-08T17:19:04.228Z,100474.72
2022-12-08T17:21:31.078Z,100478.88
2022-12-08T17:23:58.080Z,100472.25
2022-12-08T17:26:26.275Z,100467.59
2022-12-08T17:29:01.529Z,100470.63
2022-12-08T17:31:30.619Z,100476.94
2022-12-08T17:33:58.540Z,100471.97
2022-12-08T17:36:25.427Z,100476.34
2022-12-08T17:38:52.290Z,100479.91
2022-12-08T17:41:19.085Z,100484.84
2022-12-08T17:43:47.750Z,100485.63
2022-12-08T17:46:17.728Z,100485.03
2022-12-08T17:48:44.737Z,100479.78
2022-12-08T17:51:11.579Z,100477.78
2022-12-08T17:53:40.854Z,100471.03
2022-12-08T17:56:15.195Z,100475.09
2022-12-08T17:58:42.209Z,100465.59
2022-12-08T18:01:11.371Z,100469.91
2022-12-08T18:03:39.045Z,100459.91
2022-12-08T18:06:07.238Z,100470.53
2022-12-08T18:08:34.760Z,100466.31
2022-12-08T18:11:01.829Z,100465.16
2022-12-08T18:13:29.056Z,100463.41
2022-12-08T18:15:55.948Z,100461.72
2022-12-08T18:18:24.129Z,100468.56
2022-12-08T18:20:50.962Z,100464.97
2022-12-08T18:23:18.831Z,100465.22
2022-12-08T18:25:45.848Z,100469.31
2022-12-08T18:28:12.683Z,100472.00
2022-12-08T18:30:40.410Z,100467.84
2022-12-08T18:33:07.837Z,100471.47
2022-12-08T18:35:39.027Z,100468.44
2022-12-08T18:38:05.909Z,100465.41
2022-12-08T18:40:32.747Z,100466.22
2022-12-08T18:42:59.622Z,100468.16
2022-12-08T18:45:26.461Z,100460.22
2022-12-08T18:47:53.373Z,100462.47
2022-12-08T18:50:20.458Z,100457.56
2022-12-08T18:52:48.838Z,100460.94
2022-12-08T18:55:15.999Z,100454.63
2022-12-08T18:57:43.347Z,100455.34
2022-12-08T19:00:12.441Z,100454.50
2022-12-08T19:02:39.708Z,100447.34
2022-12-08T19:05:07.973Z,100450.09
2022-12-08T19:07:35.258Z,100458.38
2022-12-08T19:10:04.208Z,100446.81
2022-12-08T19:12:31.607Z,100456.13
2022-12-08T19:14:58.555Z,100457.47
2022-12-08T19:17:26.002Z,100454.94
2022-12-08T19:19:52.867Z,100458.22
2022-12-08T19:22:19.774Z,100465.41
2022-12-08T19:24:46.571Z,100468.16
2022-12-08T19:27:14.818Z,100479.41
2022-12-08T19:29:41.669Z,100477.75
2022-12-08T19:32:08.603Z,100478.28
2022-12-08T19:34:35.446Z,100485.16
2022-12-08T19:37:02.247Z,100478.88
2022-12-08T19:39:47.476Z,100476.75
2022-12-08T19:42:36.320Z,100468.72
2022-12-08T19:45:06.380Z,100467.63
2022-12-08T19:47:33.517Z,100473.09
2022-12-08T19:50:18.756Z,100459.63
2022-12-08T19:52:45.723Z,100456.66
2022-12-08T19:55:13.544Z,100454.78
2022-12-08T19:57:41.885Z,100456.03
2022-12-08T20:00:10.606Z,100448.38
2022-12-08T20:02:37.811Z,100453.50
2022-12-08T20:05:05.548Z,100450.25
2022-12-08T20:07:32.794Z,100449.00
2022-12-08T20:09:59.646Z,100453.78
2022-12-08T20:12:26.524Z,100452.56
2022-12-08T20:14:54.717Z,100449.59
2022-12-08T20:17:21.597Z,100456.84
2022-12-08T20:19:48.745Z,100450.28
2022-12-08T20:22:15.563Z,100451.16
2022-12-08T20:24:42.554Z,100451.22
2022-12-08T20:27:09.515Z,100453.16
2022-12-08T20:29:36.368Z,100459.75
2022-12-08T20:32:04.845Z,100465.03
2022-12-08T20:34:32.167Z,100458.47
2022-12-08T20:36:59.065Z,100459.34
2022-12-08T20:39:25.955Z,100463.19
2022-12-08T20:41:54.578Z,100455.81
2022-12-08T20:44:21.576Z,100467.09
2022-12-08T20:46:49.785Z,100471.78
2022-12-08T20:49:18.188Z,100468.78
2022-12-08T20:51:45.281Z,100468.53
2022-12-08T20:54:12.223Z,100467.72
2022-12-08T20:56:44.759Z,100465.25
2022-12-08T20:59:16.902Z,100460.91
2022-12-08T21:01:43.902Z,100459.81
2022-12-08T21:04:12.350Z,100451.88
2022-12-08T21:06:40.925Z,100455.22
2022-12-08T21:09:09.043Z,100459.34
2022-12-08T21:11:36.233Z,100460.47
2022-12-08T21:14:03.563Z,100458.53
2022-12-08T21:16:30.676Z,100469.53
2022-12-08T21:18:57.639Z,100461.56
2022-12-08T21:21:24.486Z,100465.69
2022-12-08T21:23:52.704Z,100467.59
2022-12-08T21:26:21.750Z,100460.47
2022-12-08T21:28:48.819Z,100465.16
2022-12-08T21:31:17.910Z,100470.34
2022-12-08T21:33:45.120Z,100459.06
2022-12-08T21:36:14.126Z,100461.25
2022-12-08T21:38:41.544Z,100456.81
2022-12-08T21:41:12.926Z,100461.19
2022-12-08T21:43:40.104Z,100460.91
2022-12-08T21:46:07.012Z,100451.56
2022-12-08T21:48:34.089Z,100446.63
2022-12-08T21:51:04.834Z,100458.44
2022-12-08T21:53:32.068Z,100459.28
2022-12-08T21:55:59.153Z,100456.84
2022-12-08T21:58:28.240Z,100463.75
2022-12-08T22:00:55.193Z,100460.69
2022-12-08T22:03:22.203Z,100466.13
2022-12-08T22:05:49.348Z,100462.56
2022-12-08T22:08:16.369Z,100466.84
2022-12-08T22:10:47.329Z,100461.53
2022-12-08T22:13:14.278Z,100463.97
2022-12-08T22:15:42.605Z,100457.13
2022-12-08T22:18:09.622Z,100466.28
2022-12-08T22:20:42.344Z,100460.75
2022-12-08T22:23:11.034Z,100446.78
2022-12-08T22:25:37.999Z,100446.78
2022-12-08T22:28:05.459Z,100447.38
2022-12-08T22:30:38.714Z,100438.84
2022-12-08T22:33:07.332Z,100430.34
2022-12-08T22:35:34.233Z,100428.19
2022-12-08T22:38:01.090Z,100427.91
2022-12-08T22:40:27.860Z,100427.72
2022-12-08T22:42:54.780Z,100423.13
2022-12-08T22:45:21.892Z,100425.31
2022-12-08T22:47:49.137Z,100424.25
2022-12-08T22:50:17.368Z,100427.28
2022-12-08T22:52:44.197Z,100428.09
2022-12-08T22:55:10.967Z,100426.72
2022-12-08T22:57:37.846Z,100439.63
2022-12-08T23:00:06.176Z,100431.66
2022-12-08T23:02:33.504Z,100429.47
2022-12-08T23:05:00.559Z,100432.50
2022-12-08T23:07:29.001Z,100425.91
2022-12-08T23:09:56.091Z,100430.06
2022-12-08T23:12:22.950Z,100424.84
2022-12-08T23:14:49.971Z,100427.03
2022-12-08T23:17:17.122Z,100422.38
2022-12-08T23:19:44.039Z,100419.66
2022-12-08T23:22:11.085Z,100417.72
2022-12-08T23:24:39.965Z,100421.31
2022-12-08T23:27:06.929Z,100423.25
2022-12-08T23:29:33.913Z,100421.06
2022-12-08T23:32:00.835Z,100415.25
2022-12-08T23:34:27.723Z,100417.69
2022-12-08T23:36:54.752Z,100417.66
2022-12-08T23:39:24.289Z,100411.34
2022-12-08T23:41:52.758Z,100411.09
2022-12-08T23:44:19.725Z,100414.03
2022-12-08T23:46:46.697Z,100414.00
2022-12-08T23:49:13.816Z,100414.88
2022-12-08T23:51:40.941Z,100423.88
2022-12-08T23:54:08.353Z,100437.63
2022-12-08T23:56:35.441Z,100437.34
2022-12-08T23:59:04.193Z,100443.31
